Time;durP1;ratioP1;P1;durP2;ratioP2;P2;SDS_P1;SDS_P2;PMS_P1;PMS_P2;Temp;Humidity;BMP_temperature;BMP_pressure;BME280_temperature;BME280_humidity;BME280_pressure;Samples;Min_cycle;Max_cycle;Signal;HPM_P1;HPM_P2
2021/12/16 00:01:50;;;;;;;34.90;14.40;;;;;;;0.24;83.58;99887.96;101772;1319;73309;-25
2021/12/16 00:05:12;;;;;;;27.20;10.60;;;;;;;0.04;84.39;99890.50;101993;1314;74300;-23
2021/12/16 00:07:34;;;;;;;27.30;11.00;;;;;;;0.70;82.46;99889.67;102306;1316;74385;-23
2021/12/16 00:10:19;;;;;;;30.80;13.30;;;;;;;1.02;80.81;99888.96;102235;1307;61193;-23
2021/12/16 00:34:57;;;;;;;22.40;9.30;;;;;;;0.45;82.06;99901.76;102104;1316;72968;-26
2021/12/16 00:37:26;;;;;;;20.50;8.60;;;;;;;0.31;82.86;99901.27;101968;1316;61286;-26
2021/12/16 00:39:56;;;;;;;24.10;8.50;;;;;;;0.17;83.56;99896.14;102014;1313;61160;-23
2021/12/16 00:47:56;;;;;;;25.00;10.70;;;;;;;1.24;79.61;99888.16;102292;1313;73418;-29
2021/12/16 00:55:54;;;;;;;22.40;8.70;;;;;;;0.48;81.37;99870.24;102096;1319;71982;-26
2021/12/16 00:58:39;;;;;;;19.50;7.20;;;;;;;0.30;82.63;99873.11;102202;1320;75632;-24
2021/12/16 01:03:59;;;;;;;17.30;7.10;;;;;;;1.48;79.81;99870.16;102249;1319;61823;-23
2021/12/16 01:34:44;;;;;;;16.00;6.80;;;;;;;0.76;79.61;99844.88;102240;1313;61188;-22
2021/12/16 01:51:18;;;;;;;10.70;4.30;;;;;;;1.10;78.03;99836.56;101698;1319;74951;-22
2021/12/16 01:56:59;;;;;;;10.20;3.90;;;;;;;0.56;80.03;99817.91;101970;1313;74337;-23
2021/12/16 01:59:34;;;;;;;8.00;3.70;;;;;;;0.45;80.45;99796.02;102197;1316;62741;-22
2021/12/16 02:02:18;;;;;;;9.30;3.80;;;;;;;1.06;79.72;99791.53;102124;1314;61195;-23
2021/12/16 02:08:06;;;;;;;10.20;4.60;;;;;;;1.26;78.42;99786.30;102010;1319;73350;-22
2021/12/16 02:10:40;;;;;;;11.00;4.60;;;;;;;0.93;78.93;99784.70;102035;1317;73208;-22
2021/12/16 02:13:39;;;;;;;13.40;5.20;;;;;;;0.72;79.44;99777.84;101625;1316;61145;-23
2021/12/16 02:37:36;;;;;;;9.80;4.20;;;;;;;1.19;80.12;99741.35;102309;1317;74182;-23
2021/12/16 02:40:06;;;;;;;11.40;5.00;;;;;;;1.72;78.32;99743.39;101908;1316;61899;-22
2021/12/16 02:42:51;;;;;;;13.60;5.20;;;;;;;1.71;77.70;99741.23;102184;1320;61322;-24
2021/12/16 02:51:08;;;;;;;14.10;5.50;;;;;;;0.82;79.77;99744.52;102203;1316;74359;-23
2021/12/16 02:53:41;;;;;;;11.40;3.50;;;;;;;0.66;80.59;99745.68;101882;1317;62720;-24
2021/12/16 02:56:09;;;;;;;12.10;5.00;;;;;;;1.24;79.91;99743.40;102083;1316;61508;-23
2021/12/16 02:58:39;;;;;;;11.90;4.90;;;;;;;1.74;78.30;99745.59;102315;1320;73767;-23
2021/12/16 03:01:33;;;;;;;10.90;5.20;;;;;;;1.75;77.94;99741.78;102074;1319;73340;-23
2021/12/16 03:04:04;;;;;;;9.90;4.30;;;;;;;1.47;78.33;99745.61;101749;1319;71323;-22
2021/12/16 03:06:33;;;;;;;9.10;5.10;;;;;;;1.18;79.28;99751.15;102292;1320;61113;-22
2021/12/16 03:09:05;;;;;;;8.60;4.20;;;;;;;0.93;79.99;99753.11;102310;1319;61096;-22
2021/12/16 03:11:44;;;;;;;8.90;3.30;;;;;;;0.73;80.99;99753.36;102111;1320;74846;-22
2021/12/16 03:17:00;;;;;;;10.00;4.50;;;;;;;1.65;78.70;99757.52;102060;1317;74766;-22
2021/12/16 03:19:48;;;;;;;11.10;4.80;;;;;;;1.64;78.11;99754.63;101923;1320;62144;-22
2021/12/16 03:22:40;;;;;;;7.20;3.90;;;;;;;1.43;78.89;99751.21;101787;1316;61732;-22
2021/12/16 03:25:18;;;;;;;8.80;4.50;;;;;;;1.16;79.64;99756.00;102094;1320;74757;-22
2021/12/16 03:28:19;;;;;;;11.10;4.30;;;;;;;0.92;80.24;99746.11;101674;1316;76523;-22
2021/12/16 03:39:09;;;;;;;9.90;4.30;;;;;;;2.01;77.73;99748.58;102102;1319;74827;-22
2021/12/16 03:41:38;;;;;;;11.00;4.50;;;;;;;1.71;78.39;99744.98;101762;1316;75139;-22
2021/12/16 03:44:11;;;;;;;9.40;4.80;;;;;;;1.43;78.91;99750.69;102120;1319;74595;-22
2021/12/16 03:46:43;;;;;;;10.50;4.00;;;;;;;1.16;79.83;99752.58;101754;1316;61161;-22
2021/12/16 03:49:14;;;;;;;9.20;3.20;;;;;;;0.96;80.34;99746.01;101873;1319;61147;-22
2021/12/16 03:51:46;;;;;;;10.50;4.80;;;;;;;1.43;80.20;99744.52;101929;1316;75685;-22
2021/12/16 03:54:30;;;;;;;8.10;3.40;;;;;;;1.97;78.43;99745.13;101879;1319;74643;-22
2021/12/16 03:57:04;;;;;;;9.90;4.70;;;;;;;1.94;78.07;99739.06;102025;1317;74463;-22
2021/12/16 03:59:33;;;;;;;10.80;4.70;;;;;;;1.67;78.61;99731.59;101952;1316;62283;-22
2021/12/16 04:02:17;;;;;;;9.10;4.60;;;;;;;1.40;79.33;99731.80;102101;1316;61210;-22
2021/12/16 04:04:45;;;;;;;12.50;5.40;;;;;;;1.16;79.64;99720.77;102059;1319;75593;-22
2021/12/16 04:07:14;;;;;;;10.30;4.10;;;;;;;0.95;80.55;99709.62;102029;1317;75844;-21
2021/12/16 04:10:03;;;;;;;10.50;4.80;;;;;;;1.40;80.09;99699.96;102162;1317;73383;-22
2021/12/16 04:12:34;;;;;;;8.80;4.70;;;;;;;1.78;78.85;99694.95;102091;1319;61220;-22
2021/12/16 04:15:04;;;;;;;8.40;4.10;;;;;;;1.75;78.77;99689.20;102023;1314;61886;-22
2021/12/16 04:17:37;;;;;;;10.70;5.80;;;;;;;1.51;79.24;99686.25;101749;1320;75333;-22
2021/12/16 04:20:09;;;;;;;11.60;4.40;;;;;;;1.17;80.08;99692.67;101685;1319;76000;-22
2021/12/16 04:22:42;;;;;;;9.40;4.20;;;;;;;0.86;81.02;99689.71;101617;1316;74757;-22
2021/12/16 04:25:13;;;;;;;;;;;;;;;1.18;81.16;99694.16;102114;1320;61189;-22
2021/12/16 04:27:43;;;;;;;10.80;5.20;;;;;;;1.70;79.42;99698.81;102105;1320;61146;-22
2021/12/16 04:30:12;;;;;;;13.10;4.00;;;;;;;1.68;78.98;99698.70;102077;1313;74657;-22
2021/12/16 04:32:42;;;;;;;10.20;5.00;;;;;;;1.43;79.67;99684.29;101828;1317;75012;-22
2021/12/16 04:35:10;;;;;;;11.40;5.60;;;;;;;1.07;80.63;99673.99;101987;1319;72679;-22
2021/12/16 04:37:39;;;;;;;10.10;4.50;;;;;;;0.79;81.79;99677.61;102163;1313;61219;-22
2021/12/16 04:40:10;;;;;;;9.70;5.10;;;;;;;0.95;82.01;99681.73;102292;1316;61115;-22
2021/12/16 04:42:44;;;;;;;13.00;6.00;;;;;;;1.61;80.13;99693.80;102051;1316;74634;-22
2021/12/16 04:45:15;;;;;;;12.30;6.30;;;;;;;1.82;79.25;99703.86;102075;1316;75749;-21
2021/12/16 04:47:45;;;;;;;14.80;5.50;;;;;;;1.66;79.43;99692.95;101954;1317;73054;-22
2021/12/16 04:50:13;;;;;;;12.80;4.90;;;;;;;1.44;79.70;99698.81;101980;1316;61285;-22
2021/12/16 04:52:43;;;;;;;14.50;5.90;;;;;;;1.18;80.67;99698.30;102313;1317;61093;-22
2021/12/16 04:55:12;;;;;;;14.20;6.10;;;;;;;0.92;81.42;99696.02;102341;1319;73741;-22
2021/12/16 04:57:41;;;;;;;13.80;4.70;;;;;;;0.81;81.78;99697.06;102070;1316;75372;-22
2021/12/16 05:00:12;;;;;;;11.00;4.70;;;;;;;1.39;81.28;99700.51;102089;1320;74620;-22
2021/12/16 05:02:44;;;;;;;13.20;5.80;;;;;;;1.98;79.24;99699.04;102156;1320;61204;-22
2021/12/16 05:05:37;;;;;;;17.90;6.90;;;;;;;2.04;78.69;99699.16;101890;1313;61215;-22
2021/12/16 05:08:06;;;;;;;13.00;6.00;;;;;;;1.84;78.98;99693.36;102285;1320;74557;-22
2021/12/16 05:10:47;;;;;;;13.90;6.30;;;;;;;1.55;79.55;99680.84;102267;1314;76123;-22
2021/12/16 05:13:20;;;;;;;13.70;6.70;;;;;;;1.25;80.40;99677.71;102060;1313;76118;-22
2021/12/16 05:15:48;;;;;;;12.70;5.20;;;;;;;1.05;80.98;99668.96;102260;1313;61953;-22
2021/12/16 05:18:25;;;;;;;17.40;6.40;;;;;;;1.47;80.96;99660.04;102301;1313;61205;-22
2021/12/16 05:21:07;;;;;;;9.90;5.80;;;;;;;1.88;79.42;99657.23;101738;1319;75660;-22
2021/12/16 05:26:23;;;;;;;11.60;5.80;;;;;;;1.59;79.70;99668.89;101827;1319;72992;-22
2021/12/16 05:29:10;;;;;;;15.70;7.40;;;;;;;1.29;80.49;99664.41;102273;1319;61492;-22
2021/12/16 05:31:39;;;;;;;12.50;5.80;;;;;;;1.06;80.97;99666.70;102274;1316;61201;-23
2021/12/16 05:34:08;;;;;;;17.00;6.80;;;;;;;1.35;81.22;99663.19;101895;1320;75699;-23
2021/12/16 05:36:39;;;;;;;15.90;7.50;;;;;;;1.91;79.57;99668.60;102044;1319;74845;-22
2021/12/16 05:39:09;;;;;;;14.30;7.00;;;;;;;1.97;79.14;99668.39;101821;1319;73376;-23
2021/12/16 05:41:47;;;;;;;16.20;7.70;;;;;;;1.76;79.54;99668.98;102189;1317;61210;-22
2021/12/16 05:44:17;;;;;;;13.80;7.80;;;;;;;1.49;80.11;99664.09;102300;1319;61491;-22
2021/12/16 05:46:49;;;;;;;15.90;7.00;;;;;;;1.22;80.85;99661.05;102253;1319;75621;-23
2021/12/16 05:49:18;;;;;;;12.80;5.70;;;;;;;1.03;81.53;99656.19;101958;1316;76491;-23
2021/12/16 05:51:49;;;;;;;12.50;6.10;;;;;;;1.49;81.23;99652.27;102276;1313;73078;-23
2021/12/16 05:54:19;;;;;;;11.80;6.90;;;;;;;1.94;79.50;99655.33;102201;1319;61214;-23
2021/12/16 05:56:51;;;;;;;18.50;6.40;;;;;;;1.92;79.43;99652.82;102059;1313;61083;-23
2021/12/16 05:59:23;;;;;;;15.90;7.30;;;;;;;1.68;79.55;99650.08;102246;1313;75481;-23
2021/12/16 06:01:52;;;;;;;10.10;5.20;;;;;;;1.39;80.34;99650.90;102283;1313;76319;-23
2021/12/16 06:04:30;;;;;;;20.40;8.20;;;;;;;1.17;81.05;99653.36;102146;1320;73295;-23
2021/12/16 06:07:01;;;;;;;14.20;6.00;;;;;;;1.04;81.69;99657.17;102001;1320;62876;-23
2021/12/16 06:09:30;;;;;;;17.20;7.20;;;;;;;1.68;80.76;99654.70;102273;1313;61229;-23
2021/12/16 06:11:59;;;;;;;14.80;6.90;;;;;;;2.23;79.33;99655.64;102335;1317;75788;-23
2021/12/16 06:14:47;;;;;;;15.20;6.70;;;;;;;2.22;78.93;99658.27;102274;1319;75091;-23
2021/12/16 06:26:25;;;;;;;18.40;7.70;;;;;;;1.32;80.61;99655.92;102326;1317;61265;-23
2021/12/16 06:28:33;;;;;;;15.20;6.90;;;;;;;1.99;80.36;99661.84;101998;1317;77192;-22
2021/12/16 06:31:05;;;;;;;17.70;8.20;;;;;;;2.33;78.84;99657.15;102183;1316;74037;-22
2021/12/16 06:33:37;;;;;;;14.70;7.40;;;;;;;2.25;78.74;99653.02;102062;1313;61185;-22
2021/12/16 06:36:06;;;;;;;17.30;9.60;;;;;;;1.96;79.18;99653.21;102290;1313;61184;-22
2021/12/16 06:38:34;;;;;;;17.40;7.80;;;;;;;1.70;79.79;99651.89;102260;1320;74563;-22
2021/12/16 06:41:34;;;;;;;13.90;5.70;;;;;;;1.41;80.84;99651.34;102153;1313;75845;-22
2021/12/16 06:44:40;;;;;;;12.60;6.10;;;;;;;1.77;80.78;99652.67;102019;1317;74620;-22
2021/12/16 06:47:17;;;;;;;17.20;8.10;;;;;;;2.19;79.18;99647.38;101784;1317;61249;-22
2021/12/16 06:49:48;;;;;;;16.00;6.90;;;;;;;2.21;79.05;99653.66;102063;1313;61110;-22
2021/12/16 06:52:20;;;;;;;13.80;6.70;;;;;;;2.04;79.24;99651.73;101584;1317;74264;-22
2021/12/16 06:57:43;;;;;;;16.40;7.70;;;;;;;1.44;80.98;99641.14;102204;1313;72320;-22
2021/12/16 07:00:21;;;;;;;11.90;5.20;;;;;;;1.28;82.09;99645.98;101795;1314;61521;-22
2021/12/16 07:05:33;;;;;;;21.60;8.60;;;;;;;2.33;79.45;99648.77;102139;1317;74577;-24
2021/12/16 07:08:03;;;;;;;14.10;7.00;;;;;;;2.27;78.98;99649.49;102019;1320;74739;-24
2021/12/16 07:10:32;;;;;;;20.20;7.70;;;;;;;2.03;79.64;99645.61;101862;1317;71936;-23
2021/12/16 07:13:07;;;;;;;19.80;8.10;;;;;;;1.73;80.68;99642.19;101756;1319;61081;-23
2021/12/16 07:15:36;;;;;;;18.10;7.90;;;;;;;1.47;81.70;99630.25;101693;1319;61072;-23
2021/12/16 07:18:07;;;;;;;19.30;8.20;;;;;;;1.54;82.25;99631.04;101834;1315;74132;-24
2021/12/16 07:20:36;;;;;;;17.20;8.40;;;;;;;2.16;80.64;99628.00;102085;1313;75413;-25
2021/12/16 07:23:05;;;;;;;19.10;8.10;;;;;;;2.39;79.62;99625.76;101971;1317;74466;-24
2021/12/16 07:25:34;;;;;;;19.40;9.60;;;;;;;2.27;79.50;99621.41;102017;1314;61213;-23
2021/12/16 07:28:07;;;;;;;13.50;6.10;;;;;;;2.07;80.27;99621.30;101426;1317;400599;-22
2021/12/16 07:30:38;;;;;;;22.10;9.50;;;;;;;1.75;81.29;99615.95;102042;1317;75560;-22
2021/12/16 07:33:06;;;;;;;12.00;5.90;;;;;;;1.50;82.68;99618.54;101688;1317;75915;-22
2021/12/16 07:35:35;;;;;;;21.20;8.90;;;;;;;1.80;82.37;99623.97;101904;1314;74472;-22
2021/12/16 07:38:04;;;;;;;16.10;7.20;;;;;;;2.26;80.90;99624.68;102053;1314;62234;-22
2021/12/16 07:40:33;;;;;;;20.70;8.50;;;;;;;2.32;80.32;99624.12;102111;1313;61332;-22
2021/12/16 07:45:41;;;;;;;15.50;6.50;;;;;;;1.78;82.47;99624.73;102109;1313;75952;-22
2021/12/16 07:48:11;;;;;;;14.00;4.90;;;;;;;1.56;83.51;99622.95;101929;1320;74427;-22
2021/12/16 07:50:40;;;;;;;15.80;6.90;;;;;;;1.55;84.07;99624.49;102198;1313;62087;-22
2021/12/16 07:53:08;;;;;;;24.50;9.00;;;;;;;2.13;82.55;99627.40;102035;1317;61957;-22
2021/12/16 07:55:41;;;;;;;19.40;7.80;;;;;;;2.35;81.43;99624.70;102135;1313;75511;-22
2021/12/16 07:58:10;;;;;;;17.20;6.90;;;;;;;2.27;81.17;99626.38;102059;1314;76075;-22
2021/12/16 08:00:38;;;;;;;17.60;8.00;;;;;;;2.02;82.05;99630.38;102185;1313;74456;-22
2021/12/16 08:03:09;;;;;;;14.50;7.40;;;;;;;1.83;82.88;99622.81;102179;1314;61204;-22
2021/12/16 08:05:40;;;;;;;13.30;6.20;;;;;;;1.69;83.52;99620.10;101874;1317;61189;-22
2021/12/16 08:08:09;;;;;;;21.50;9.40;;;;;;;2.07;83.16;99620.42;101689;1317;74815;-22
2021/12/16 08:10:37;;;;;;;21.10;10.70;;;;;;;2.50;81.49;99620.52;101970;1317;76096;-22
2021/12/16 08:13:05;;;;;;;18.10;7.80;;;;;;;2.53;81.20;99622.48;102123;1313;73230;-22
2021/12/16 08:15:34;;;;;;;18.40;7.90;;;;;;;2.32;81.75;99623.09;101975;1316;61227;-22
2021/12/16 08:18:03;;;;;;;12.90;6.60;;;;;;;2.08;82.47;99619.36;102186;1319;61120;-22
2021/12/16 08:20:32;;;;;;;20.30;8.80;;;;;;;1.84;83.36;99615.27;102229;1319;75918;-22
2021/12/16 08:23:01;;;;;;;14.50;7.10;;;;;;;1.69;84.19;99615.82;102075;1314;76173;-23
2021/12/16 08:25:30;;;;;;;11.80;6.30;;;;;;;2.19;83.19;99610.73;102160;1317;74531;-21
2021/12/16 08:27:59;;;;;;;17.30;8.20;;;;;;;2.64;81.28;99612.42;102083;1313;61083;-21
2021/12/16 08:30:28;;;;;;;20.20;8.70;;;;;;;2.63;80.96;99611.13;102201;1319;61862;-22
2021/12/16 08:32:59;;;;;;;13.20;6.40;;;;;;;2.44;81.34;99605.15;101989;1317;75462;-22
2021/12/16 08:35:27;;;;;;;17.50;8.40;;;;;;;2.23;82.06;99605.45;102262;1314;76125;-22
2021/12/16 08:37:56;;;;;;;23.20;8.90;;;;;;;1.99;82.93;99602.07;102043;1313;74426;-22
2021/12/16 08:40:24;;;;;;;18.90;7.60;;;;;;;1.95;83.63;99600.48;102181;1313;63111;-22
2021/12/16 08:42:53;;;;;;;18.20;8.00;;;;;;;2.57;82.08;99591.11;102177;1313;61218;-22
2021/12/16 08:45:30;;;;;;;15.30;6.50;;;;;;;2.89;80.71;99589.50;101957;1316;75603;-21
2021/12/16 08:48:03;;;;;;;15.50;7.40;;;;;;;2.82;80.51;99584.30;101692;1314;73220;-22
2021/12/16 08:50:34;;;;;;;18.10;8.40;;;;;;;2.54;81.19;99580.93;101662;1320;73214;-22
2021/12/16 08:53:03;;;;;;;15.40;8.00;;;;;;;2.28;82.22;99578.70;101946;1313;61134;-22
2021/12/16 08:55:32;;;;;;;11.90;5.70;;;;;;;2.08;83.33;99579.13;102256;1320;62165;-22
2021/12/16 08:58:00;;;;;;;14.10;7.40;;;;;;;2.44;82.67;99578.94;101939;1319;74798;-21
2021/12/16 09:00:32;;;;;;;20.20;8.30;;;;;;;2.87;80.77;99573.96;102096;1313;76082;-22
2021/12/16 09:03:12;;;;;;;15.50;8.00;;;;;;;2.82;80.83;99572.65;101698;1317;74600;-22
2021/12/16 09:05:41;;;;;;;15.50;8.20;;;;;;;2.52;81.80;99572.95;101692;1314;62433;-22
2021/12/16 09:08:10;;;;;;;17.60;9.80;;;;;;;2.25;82.88;99571.46;101837;1319;62016;-22
2021/12/16 09:10:39;;;;;;;19.30;10.20;;;;;;;2.02;84.04;99570.27;101804;1314;75637;-22
2021/12/16 09:13:10;;;;;;;12.10;5.50;;;;;;;2.28;83.96;99572.17;101666;1320;76081;-22
2021/12/16 09:15:54;;;;;;;17.50;9.10;;;;;;;2.63;82.41;99566.38;101720;1313;74534;-22
2021/12/16 09:18:30;;;;;;;14.40;7.60;;;;;;;2.46;83.07;99566.88;102090;1317;62158;-22
2021/12/16 09:21:00;;;;;;;12.10;6.60;;;;;;;2.34;83.40;99560.84;101926;1313;62269;-22
2021/12/16 09:23:40;;;;;;;16.00;6.30;;;;;;;2.02;84.60;99552.29;101968;1313;75610;-22
2021/12/16 09:26:08;;;;;;;12.90;6.30;;;;;;;2.00;84.98;99551.48;101662;1317;74925;-22
2021/12/16 09:28:36;;;;;;;13.30;6.70;;;;;;;2.58;83.15;99552.67;102024;1313;74424;-22
2021/12/16 09:31:10;;;;;;;16.80;7.80;;;;;;;2.69;82.12;99548.29;102106;1313;61204;-22
2021/12/16 09:33:43;;;;;;;13.90;6.80;;;;;;;2.55;82.49;99546.97;101845;1316;61197;-22
2021/12/16 09:36:12;;;;;;;20.80;9.10;;;;;;;2.31;83.23;99543.27;101879;1313;76409;-22
2021/12/16 09:38:40;;;;;;;15.10;6.80;;;;;;;2.06;84.34;99541.51;101902;1317;76215;-22
2021/12/16 09:41:09;;;;;;;13.30;6.80;;;;;;;2.26;84.41;99544.52;101841;1317;74511;-22
2021/12/16 09:43:40;;;;;;;15.10;6.30;;;;;;;2.74;82.91;99542.60;101943;1313;62041;-22
2021/12/16 09:46:11;;;;;;;21.50;9.50;;;;;;;2.80;82.13;99538.92;101618;1314;61197;-22
2021/12/16 09:48:39;;;;;;;14.70;7.00;;;;;;;2.65;82.61;99538.67;101700;1316;75989;-22
2021/12/16 09:51:10;;;;;;;16.90;7.80;;;;;;;2.42;83.57;99533.26;102074;1317;76225;-22
2021/12/16 09:53:39;;;;;;;13.90;6.00;;;;;;;2.27;84.37;99533.16;101930;1320;74466;-22
2021/12/16 09:56:09;;;;;;;21.40;9.70;;;;;;;2.68;83.33;99527.58;102047;1313;61143;-22
2021/12/16 09:58:43;;;;;;;12.70;6.10;;;;;;;3.05;81.83;99531.55;101771;1313;62297;-22
2021/12/16 10:01:11;;;;;;;;;;;;;;;2.97;81.68;99528.42;101844;1317;73940;-22
2021/12/16 10:03:43;;;;;;;21.00;10.50;;;;;;;2.71;82.81;99526.96;102241;1313;76140;-22
2021/12/16 10:06:12;;;;;;;20.60;9.40;;;;;;;2.38;84.32;99522.78;101881;1316;71417;-23
2021/12/16 10:08:55;;;;;;;18.00;8.30;;;;;;;2.29;85.10;99521.45;102107;1314;62100;-22
2021/12/16 10:11:24;;;;;;;22.90;10.50;;;;;;;2.75;83.69;99520.78;102289;1313;61101;-22
2021/12/16 10:15:05;;;;;;;15.10;7.30;;;;;;;3.13;81.99;99521.40;102291;1314;75600;-22
2021/12/16 10:19:38;;;;;;;18.80;9.00;;;;;;;2.76;83.20;99505.66;102161;1313;74379;-22
2021/12/16 10:22:38;;;;;;;18.90;10.00;;;;;;;2.53;83.80;99509.02;102236;1314;61173;-22
2021/12/16 10:25:15;;;;;;;20.80;9.10;;;;;;;2.46;84.95;99509.64;101929;1313;61172;-22
2021/12/16 10:28:01;;;;;;;18.40;7.90;;;;;;;2.86;83.09;99504.36;102115;1314;75648;-22
2021/12/16 10:30:43;;;;;;;21.90;10.20;;;;;;;2.92;82.37;99507.38;101875;1317;76154;-22
2021/12/16 10:33:23;;;;;;;20.10;9.90;;;;;;;2.61;83.57;99500.62;101930;1319;74463;-22
2021/12/16 10:36:08;;;;;;;19.60;10.20;;;;;;;2.42;84.42;99499.34;101751;1317;61131;-22
2021/12/16 10:38:59;;;;;;;24.40;11.80;;;;;;;2.27;85.29;99493.76;101794;1314;61133;-22
2021/12/16 10:41:42;;;;;;;15.50;7.80;;;;;;;2.87;83.49;99493.52;102072;1314;75470;-22
2021/12/16 10:44:14;;;;;;;27.10;11.20;;;;;;;2.91;82.87;99489.77;101670;1313;73359;-22
2021/12/16 10:46:46;;;;;;;20.30;9.30;;;;;;;2.80;83.45;99491.60;101858;1319;73658;-22
2021/12/16 10:49:19;;;;;;;17.40;8.60;;;;;;;2.60;84.45;99487.45;102219;1313;61133;-22
2021/12/16 10:51:49;;;;;;;19.60;7.90;;;;;;;2.52;85.06;99483.01;102111;1313;61860;-22
2021/12/16 10:54:39;;;;;;;17.40;8.70;;;;;;;2.88;84.17;99479.59;102132;1317;73928;-22
2021/12/16 10:57:09;;;;;;;17.80;9.60;;;;;;;3.29;82.13;99475.26;102140;1313;75896;-22
2021/12/16 10:59:44;;;;;;;17.90;9.10;;;;;;;3.15;82.36;99478.45;102059;1316;74457;-22
2021/12/16 11:02:15;;;;;;;20.50;9.00;;;;;;;3.01;82.99;99468.60;102107;1314;61894;-22
2021/12/16 11:05:12;;;;;;;16.90;7.60;;;;;;;2.79;84.03;99466.40;102204;1313;61855;-22
2021/12/16 11:07:44;;;;;;;15.80;8.00;;;;;;;2.96;84.06;99462.78;101883;1313;75846;-22
2021/12/16 11:10:17;;;;;;;17.30;8.10;;;;;;;3.36;82.25;99456.06;101712;1314;74874;-21
2021/12/16 11:12:59;;;;;;;16.30;8.20;;;;;;;3.35;82.15;99447.02;102108;1313;74480;-22
2021/12/16 11:15:32;;;;;;;15.80;7.60;;;;;;;3.14;82.84;99439.21;101710;1319;61161;-22
2021/12/16 11:18:02;;;;;;;17.00;8.00;;;;;;;2.90;83.76;99435.45;101727;1316;62246;-22
2021/12/16 11:20:49;;;;;;;12.80;6.90;;;;;;;2.79;84.65;99427.52;101652;1317;75507;-22
2021/12/16 11:23:32;;;;;;;15.10;7.30;;;;;;;3.37;82.77;99423.27;101879;1317;75191;-22
2021/12/16 11:26:28;;;;;;;16.00;7.60;;;;;;;3.59;81.39;99422.43;101768;1317;74596;-22
2021/12/16 11:28:56;;;;;;;15.30;6.50;;;;;;;3.46;81.55;99424.56;101699;1316;61901;-22
2021/12/16 11:31:28;;;;;;;17.40;9.00;;;;;;;3.16;82.53;99416.83;101901;1316;61172;-22
2021/12/16 11:34:04;;;;;;;10.20;5.90;;;;;;;2.86;83.74;99412.29;101596;1316;72518;-23
2021/12/16 11:36:34;;;;;;;16.70;8.50;;;;;;;3.08;83.35;99412.88;101599;1317;75964;-22
2021/12/16 11:39:07;;;;;;;21.20;9.70;;;;;;;3.41;81.93;99406.61;101675;1317;72612;-22
2021/12/16 11:41:53;;;;;;;22.90;9.70;;;;;;;3.40;81.68;99407.33;101715;1319;61179;-22
2021/12/16 11:44:25;;;;;;;14.50;6.20;;;;;;;3.19;82.44;99409.61;101758;1317;61753;-22
2021/12/16 11:47:02;;;;;;;18.70;8.90;;;;;;;2.96;83.31;99403.13;101692;1317;75642;-22
2021/12/16 11:49:37;;;;;;;11.70;5.90;;;;;;;2.75;84.29;99408.30;101671;1316;76595;-22
2021/12/16 11:52:07;;;;;;;17.20;7.60;;;;;;;3.21;83.07;99404.72;101644;1319;74488;-22
2021/12/16 11:54:40;;;;;;;16.30;7.50;;;;;;;3.51;81.52;99404.44;101756;1316;61309;-22
2021/12/16 11:57:26;;;;;;;14.40;7.30;;;;;;;3.36;81.71;99400.48;101807;1317;61851;-22
2021/12/16 11:59:59;;;;;;;19.80;8.60;;;;;;;3.13;82.42;99405.64;101751;1317;75652;-22
2021/12/16 12:02:33;;;;;;;16.70;7.80;;;;;;;2.89;83.34;99401.86;101864;1316;74818;-22
2021/12/16 12:05:25;;;;;;;18.60;8.20;;;;;;;2.82;84.11;99402.02;101720;1317;74786;-22
2021/12/16 12:08:22;;;;;;;14.70;6.80;;;;;;;3.36;82.37;99395.67;101707;1316;61223;-22
2021/12/16 12:11:06;;;;;;;14.50;6.80;;;;;;;3.43;81.56;99390.04;101568;1316;61634;-22
2021/12/16 12:13:39;;;;;;;16.00;8.00;;;;;;;3.27;82.04;99388.89;101713;1319;73818;-22
2021/12/16 12:16:07;;;;;;;15.50;8.50;;;;;;;3.02;82.98;99383.80;101701;1313;74685;-22
2021/12/16 12:18:45;;;;;;;13.10;7.10;;;;;;;2.79;83.99;99386.37;102073;1313;74697;-23
2021/12/16 12:21:30;;;;;;;14.10;7.30;;;;;;;3.22;83.11;99388.04;101816;1314;62635;-22
2021/12/16 12:24:17;;;;;;;14.90;6.70;;;;;;;3.59;81.53;99383.46;101819;1314;61211;-22
2021/12/16 12:26:45;;;;;;;16.70;8.60;;;;;;;3.42;82.01;99385.95;101962;1313;74901;-22
2021/12/16 12:29:27;;;;;;;16.70;7.90;;;;;;;3.26;82.41;99390.46;102099;1313;75917;-22
2021/12/16 12:32:02;;;;;;;17.60;7.10;;;;;;;2.99;83.47;99392.36;101807;1317;74412;-23
2021/12/16 12:34:32;;;;;;;18.50;9.30;;;;;;;3.05;84.10;99394.31;101723;1317;63283;-22
2021/12/16 12:37:03;;;;;;;18.20;8.60;;;;;;;3.46;82.58;99393.15;101715;1317;61269;-22
2021/12/16 12:39:36;;;;;;;17.10;7.20;;;;;;;3.55;82.00;99391.54;102079;1317;75584;-22
2021/12/16 12:42:06;;;;;;;18.60;7.90;;;;;;;3.32;82.73;99393.43;101829;1317;76185;-22
2021/12/16 12:44:34;;;;;;;16.90;8.30;;;;;;;3.08;83.52;99394.70;101740;1317;74410;-22
2021/12/16 12:47:06;;;;;;;16.00;7.90;;;;;;;2.78;84.88;99392.23;101896;1317;61248;-22
2021/12/16 12:49:34;;;;;;;11.60;5.80;;;;;;;3.10;84.13;99390.13;101913;1316;61200;-22
2021/12/16 12:52:23;;;;;;;17.40;7.00;;;;;;;3.34;82.74;99391.46;102076;1313;75516;-22
2021/12/16 12:55:02;;;;;;;14.90;6.30;;;;;;;3.22;83.20;99392.86;101790;1314;73395;-22
2021/12/16 12:57:33;;;;;;;16.50;8.90;;;;;;;2.99;83.92;99395.41;101813;1313;72972;-22
2021/12/16 13:00:04;;;;;;;14.30;8.00;;;;;;;2.80;84.87;99393.70;101771;1317;61369;-22
2021/12/16 13:02:35;;;;;;;;;;;;;;;2.98;84.51;99389.81;101715;1316;61189;-22
2021/12/16 13:05:07;;;;;;;14.80;7.90;;;;;;;3.42;82.73;99391.27;101877;1314;74303;-22
2021/12/16 13:07:36;;;;;;;16.50;6.90;;;;;;;3.42;82.56;99383.38;101853;1313;75140;-23
2021/12/16 13:10:10;;;;;;;16.60;8.30;;;;;;;3.19;83.37;99384.43;102093;1314;72972;-22
2021/12/16 13:12:52;;;;;;;17.10;7.30;;;;;;;2.96;84.48;99378.08;102153;1317;61166;-22
2021/12/16 13:23:57;;;;;;;17.50;8.60;;;;;;;3.30;83.22;99375.52;102082;1316;72811;-22
2021/12/16 13:26:38;;;;;;;12.70;4.60;;;;;;;3.04;84.19;99369.83;101852;1316;61205;-23
2021/12/16 13:32:18;;;;;;;16.80;8.60;;;;;;;3.44;83.23;99364.39;101544;1313;75592;-23
2021/12/16 13:35:03;;;;;;;8.90;4.90;;;;;;;3.40;83.14;99360.61;101932;1319;75841;-24
2021/12/16 13:37:37;;;;;;;16.60;8.40;;;;;;;3.28;83.32;99364.27;102010;1314;73276;-27
2021/12/16 13:40:18;;;;;;;11.70;5.10;;;;;;;3.01;84.66;99362.05;101757;1316;62142;-26
2021/12/16 13:42:50;;;;;;;15.10;6.70;;;;;;;2.94;85.17;99361.50;102005;1314;61154;-24
2021/12/16 13:45:30;;;;;;;12.80;6.60;;;;;;;3.38;83.95;99357.45;101767;1314;75956;-24
2021/12/16 14:10:06;;;;;;;14.70;7.20;;;;;;;3.08;85.64;99346.48;102293;1316;61193;-23
2021/12/16 14:15:25;;;;;;;19.70;9.70;;;;;;;3.56;83.65;99332.42;102218;1313;76850;-23
2021/12/16 14:18:09;;;;;;;13.40;6.20;;;;;;;3.21;84.86;99325.28;101989;1314;74878;-22
2021/12/16 14:24:16;;;;;;;15.70;8.20;;;;;;;3.15;85.66;99327.11;102142;1313;61191;-23
2021/12/16 14:27:07;;;;;;;9.00;4.80;;;;;;;3.61;83.74;99321.05;102309;1316;74342;-22
2021/12/16 14:35:04;;;;;;;14.00;7.00;;;;;;;3.04;85.76;99324.21;101750;1315;61997;-23
2021/12/16 14:37:47;;;;;;;15.10;7.30;;;;;;;3.42;84.68;99318.98;101687;1316;61122;-22
2021/12/16 14:43:34;;;;;;;15.90;8.70;;;;;;;3.38;84.62;99330.84;102035;1314;75251;-24
2021/12/16 14:46:05;;;;;;;;;;;;;;;3.16;85.35;99320.54;102079;1317;74457;-22
2021/12/16 14:48:35;;;;;;;16.00;7.40;;;;;;;3.16;85.95;99321.94;101771;1319;61956;-24
2021/12/16 14:51:09;;;;;;;9.00;4.50;;;;;;;3.47;84.51;99324.27;101824;1313;61233;-21
2021/12/16 14:53:39;;;;;;;22.10;10.60;;;;;;;3.48;84.25;99321.98;101753;1317;75905;-22
2021/12/16 14:56:25;;;;;;;18.00;8.60;;;;;;;3.24;85.23;99326.89;101784;1319;75258;-21
2021/12/16 14:59:02;;;;;;;14.70;7.20;;;;;;;2.99;86.35;99321.85;101814;1314;74458;-21
2021/12/16 15:01:40;;;;;;;20.50;10.20;;;;;;;3.05;86.56;99328.25;102081;1314;63029;-21
2021/12/16 15:04:09;;;;;;;11.90;5.50;;;;;;;3.46;85.03;99330.67;101765;1319;61189;-22
2021/12/16 15:06:45;;;;;;;14.70;7.80;;;;;;;3.34;85.04;99328.33;101761;1313;74617;-22
2021/12/16 15:12:05;;;;;;;17.70;9.00;;;;;;;3.01;86.30;99334.27;101869;1313;74586;-22
2021/12/16 15:17:33;;;;;;;10.30;5.30;;;;;;;3.52;84.60;99331.42;101851;1320;61211;-23
2021/12/16 15:31:50;;;;;;;11.80;5.90;;;;;;;3.40;84.88;99324.09;101609;1322;61122;-23